Time;durP1;ratioP1;P1;durP2;ratioP2;P2;SDS_P1;SDS_P2;PMS_P1;PMS_P2;Temp;Humidity;BMP_temperature;BMP_pressure;BME280_temperature;BME280_humidity;BME280_pressure;Samples;Min_cycle;Max_cycle;Signal;HPM_P1;HPM_P2
2021/09/11 00:01:30;;;;;;;14.10;9.20;;;;;;;19.09;51.87;100627.05;117380;1184;23665;-54
2021/09/11 00:03:59;;;;;;;15.20;9.70;;;;;;;19.09;51.85;100628.08;117398;1184;22036;-52
2021/09/11 00:06:27;;;;;;;13.20;9.30;;;;;;;19.10;51.87;100628.40;117320;1176;21865;-64
2021/09/11 00:08:56;;;;;;;14.10;8.50;;;;;;;19.11;51.92;100623.73;117289;1184;23443;-55
2021/09/11 00:11:24;;;;;;;15.40;9.00;;;;;;;19.11;51.86;100619.12;117373;1184;23843;-54
2021/09/11 00:14:12;;;;;;;13.00;8.80;;;;;;;19.12;51.85;100615.89;117379;1185;21863;-65
2021/09/11 00:16:41;;;;;;;14.30;9.30;;;;;;;19.09;51.92;100614.24;117477;1184;22013;-57
2021/09/11 00:19:09;;;;;;;15.20;9.00;;;;;;;19.07;51.92;100612.56;117458;1185;23439;-63
2021/09/11 00:21:38;;;;;;;15.50;9.30;;;;;;;19.06;51.98;100612.05;117360;1182;24155;-64
2021/09/11 00:24:08;;;;;;;13.60;9.60;;;;;;;19.07;51.92;100610.43;117391;1182;23555;-55
2021/09/11 00:26:38;;;;;;;13.90;8.60;;;;;;;19.07;51.93;100612.02;117455;1185;21859;-54
2021/09/11 00:29:06;;;;;;;15.20;9.60;;;;;;;19.06;51.97;100610.07;117392;1185;23436;-64
2021/09/11 00:31:34;;;;;;;12.70;8.60;;;;;;;19.05;52.06;100609.95;117375;1182;21830;-54
2021/09/11 00:34:03;;;;;;;12.30;8.40;;;;;;;18.91;52.16;100607.48;117387;1185;23449;-64
2021/09/11 00:36:31;;;;;;;12.80;9.30;;;;;;;18.86;52.17;100608.25;117444;1183;23441;-54
2021/09/11 00:38:59;;;;;;;15.30;9.30;;;;;;;18.85;52.27;100612.02;117441;1184;21995;-55
2021/09/11 00:41:27;;;;;;;13.20;9.20;;;;;;;18.82;52.35;100612.35;117386;1185;21957;-64
2021/09/11 00:43:57;;;;;;;13.00;9.60;;;;;;;18.79;52.42;100610.84;117374;1182;23442;-55
2021/09/11 00:46:25;;;;;;;11.40;8.30;;;;;;;18.79;52.37;100610.70;117330;1185;21857;-54
2021/09/11 00:48:54;;;;;;;15.50;9.40;;;;;;;18.81;52.41;100610.08;117431;1182;23442;-55
2021/09/11 00:51:23;;;;;;;14.70;9.10;;;;;;;18.79;52.29;100608.04;117288;1185;21855;-63
2021/09/11 00:53:51;;;;;;;13.80;8.80;;;;;;;18.80;52.31;100609.20;117320;1184;21865;-64
2021/09/11 00:56:19;;;;;;;12.00;9.20;;;;;;;18.79;52.30;100608.20;117381;1184;21899;-63
2021/09/11 00:59:07;;;;;;;13.50;8.60;;;;;;;18.78;52.33;100608.80;117271;1185;22906;-54
2021/09/11 01:01:36;;;;;;;12.50;8.90;;;;;;;18.75;52.37;100612.98;117255;1184;21854;-54
2021/09/11 01:04:28;;;;;;;11.70;9.00;;;;;;;18.71;52.32;100612.61;117349;1185;21852;-64
2021/09/11 01:06:57;;;;;;;14.30;9.20;;;;;;;18.71;52.36;100613.70;117427;1178;22321;-63
2021/09/11 01:09:25;;;;;;;14.80;8.80;;;;;;;18.69;52.42;100612.52;117423;1184;21860;-54
2021/09/11 01:12:05;;;;;;;12.70;8.80;;;;;;;18.69;52.38;100615.92;117381;1183;23638;-65
2021/09/11 01:14:33;;;;;;;14.50;9.40;;;;;;;18.67;52.38;100613.48;117554;1183;21862;-64
2021/09/11 01:17:02;;;;;;;14.20;8.70;;;;;;;18.66;52.39;100612.67;117396;1185;21858;-63
2021/09/11 01:19:30;;;;;;;14.20;9.50;;;;;;;18.65;52.35;100611.83;117314;1184;21855;-54
2021/09/11 01:21:58;;;;;;;16.40;9.30;;;;;;;18.63;52.34;100612.27;117394;1184;21856;-64
2021/09/11 01:24:26;;;;;;;13.40;9.20;;;;;;;18.59;52.30;100616.33;117395;1185;21856;-64
2021/09/11 01:26:54;;;;;;;12.30;8.50;;;;;;;18.56;52.28;100617.33;117341;1186;21887;-63
2021/09/11 01:29:23;;;;;;;14.30;9.60;;;;;;;18.52;52.41;100617.52;117450;1185;23452;-54
2021/09/11 01:31:51;;;;;;;13.10;9.10;;;;;;;18.49;52.42;100614.08;117404;1185;21843;-64
2021/09/11 01:34:20;;;;;;;15.40;9.60;;;;;;;18.46;52.37;100613.85;117483;1182;23465;-54
2021/09/11 01:36:57;;;;;;;14.20;9.60;;;;;;;18.45;52.38;100614.60;117352;1180;23577;-54
2021/09/11 01:39:26;;;;;;;13.30;9.00;;;;;;;18.45;52.45;100610.51;117438;1182;23477;-64
2021/09/11 01:41:54;;;;;;;12.70;9.50;;;;;;;18.44;52.40;100609.65;117434;1185;23536;-54
2021/09/11 01:44:22;;;;;;;17.00;9.40;;;;;;;18.43;52.44;100608.11;117370;1185;21868;-54
2021/09/11 01:46:50;;;;;;;15.50;9.60;;;;;;;18.42;52.47;100609.74;117366;1185;21867;-54
2021/09/11 01:49:19;;;;;;;15.00;10.40;;;;;;;18.42;52.43;100610.48;117326;1185;23459;-64
2021/09/11 01:51:55;;;;;;;16.00;10.20;;;;;;;18.41;52.49;100613.67;117345;1182;21992;-64
2021/09/11 01:54:24;;;;;;;15.90;10.90;;;;;;;18.40;52.44;100617.63;117514;1184;23443;-54
2021/09/11 01:56:52;;;;;;;14.40;10.00;;;;;;;18.44;52.31;100616.40;117412;1185;23461;-54
2021/09/11 01:59:20;;;;;;;14.00;10.00;;;;;;;18.35;52.50;100619.65;117381;1185;21896;-64
2021/09/11 02:01:48;;;;;;;15.60;10.10;;;;;;;18.30;52.64;100618.26;117363;1182;21858;-63
2021/09/11 02:04:17;;;;;;;14.50;10.00;;;;;;;18.28;52.54;100615.98;117395;1182;21988;-64
2021/09/11 02:07:05;;;;;;;16.80;10.20;;;;;;;18.27;52.59;100619.77;117277;1186;21854;-63
2021/09/11 02:09:35;;;;;;;22.50;11.80;;;;;;;18.26;52.60;100619.45;117385;1184;23439;-62
2021/09/11 02:12:19;;;;;;;14.70;10.30;;;;;;;18.27;52.54;100617.65;117362;1183;23519;-64
2021/09/11 02:14:47;;;;;;;15.50;10.60;;;;;;;18.28;52.59;100615.12;117392;1184;24162;-63
2021/09/11 02:17:17;;;;;;;14.30;10.10;;;;;;;18.29;52.55;100617.40;117377;1185;23584;-63
2021/09/11 02:19:47;;;;;;;13.80;11.20;;;;;;;18.26;52.54;100619.83;117342;1185;23443;-58
2021/09/11 02:22:16;;;;;;;15.40;10.30;;;;;;;18.23;52.64;100617.44;117332;1185;21856;-54
2021/09/11 02:25:04;;;;;;;13.60;10.10;;;;;;;18.21;52.57;100617.19;117329;1185;22936;-55
2021/09/11 02:27:32;;;;;;;17.20;11.00;;;;;;;18.19;52.63;100615.48;117378;1183;21858;-55
2021/09/11 02:30:01;;;;;;;13.60;10.00;;;;;;;18.17;52.59;100613.08;117352;1176;21855;-62
2021/09/11 02:32:29;;;;;;;14.30;11.00;;;;;;;18.15;52.60;100613.86;117487;1185;22611;-62
2021/09/11 02:34:59;;;;;;;21.00;11.10;;;;;;;18.12;52.54;100608.27;117427;1184;23462;-54
2021/09/11 02:37:29;;;;;;;16.10;10.10;;;;;;;18.11;52.59;100610.30;117355;1185;23484;-63
2021/09/11 02:39:57;;;;;;;18.30;10.80;;;;;;;18.08;52.58;100605.60;117351;1184;21858;-54
2021/09/11 02:42:45;;;;;;;17.10;11.30;;;;;;;18.09;52.52;100609.64;117388;1184;22592;-63
2021/09/11 02:45:30;;;;;;;17.60;11.60;;;;;;;18.05;52.56;100607.33;117381;1185;23489;-54
2021/09/11 02:48:09;;;;;;;14.30;10.10;;;;;;;18.03;52.60;100602.08;117329;1183;22567;-53
2021/09/11 02:50:41;;;;;;;16.50;10.80;;;;;;;18.01;52.59;100604.81;117265;1185;23455;-63
2021/09/11 02:53:10;;;;;;;15.50;10.90;;;;;;;18.00;52.66;100605.05;117347;1185;24145;-54
2021/09/11 02:55:38;;;;;;;19.80;9.90;;;;;;;17.98;52.65;100603.65;117344;1185;21851;-63
2021/09/11 02:58:17;;;;;;;15.40;10.40;;;;;;;17.99;52.60;100605.61;117332;1183;23469;-54
2021/09/11 03:00:45;;;;;;;16.50;11.00;;;;;;;17.98;52.53;100609.52;117267;1181;22638;-55
2021/09/11 03:03:14;;;;;;;12.80;10.10;;;;;;;17.98;52.59;100613.77;117349;1184;24200;-55
2021/09/11 03:05:43;;;;;;;14.20;10.60;;;;;;;17.97;52.55;100616.49;117429;1185;22893;-54
2021/09/11 03:08:11;;;;;;;15.20;10.60;;;;;;;17.93;52.54;100618.25;117376;1185;21852;-63
2021/09/11 03:10:59;;;;;;;16.60;10.50;;;;;;;17.94;52.54;100620.49;117356;1184;22974;-62
2021/09/11 03:13:27;;;;;;;19.20;10.60;;;;;;;17.94;52.68;100618.54;117389;1176;21860;-63
2021/09/11 03:15:57;;;;;;;20.80;11.70;;;;;;;17.92;52.64;100618.27;117367;1183;21845;-63
2021/09/11 03:18:25;;;;;;;17.80;10.50;;;;;;;17.91;52.68;100618.66;117414;1180;21908;-63
2021/09/11 03:20:53;;;;;;;15.20;10.90;;;;;;;17.92;52.61;100616.52;117406;1184;21855;-55
2021/09/11 03:23:35;;;;;;;13.10;10.20;;;;;;;17.92;52.57;100617.93;117433;1185;23450;-63
2021/09/11 03:26:11;;;;;;;22.10;11.20;;;;;;;17.99;52.59;100617.14;117408;1182;24153;-54
2021/09/11 03:28:40;;;;;;;18.50;10.10;;;;;;;17.94;52.50;100618.90;117384;1185;22648;-63
2021/09/11 03:31:08;;;;;;;24.90;11.90;;;;;;;17.92;52.56;100619.88;117314;1186;21896;-64
2021/09/11 03:33:37;;;;;;;15.40;10.90;;;;;;;17.91;52.65;100619.36;117311;1185;23468;-54
2021/09/11 03:36:05;;;;;;;14.40;10.60;;;;;;;17.92;52.60;100619.34;117355;1185;21982;-54
2021/09/11 03:38:33;;;;;;;19.40;11.20;;;;;;;17.96;52.55;100614.40;117408;1184;23445;-54
2021/09/11 03:41:06;;;;;;;19.60;11.90;;;;;;;18.00;52.53;100612.84;117301;1181;23478;-54
2021/09/11 03:43:34;;;;;;;19.30;10.80;;;;;;;18.02;52.50;100609.58;117325;1185;23474;-64
2021/09/11 03:46:02;;;;;;;14.60;10.40;;;;;;;18.07;52.54;100611.36;117339;1185;21899;-54
2021/09/11 03:48:30;;;;;;;15.80;10.70;;;;;;;18.09;52.58;100611.98;117439;1185;21862;-54
2021/09/11 03:50:59;;;;;;;14.90;10.60;;;;;;;18.10;52.67;100615.30;117341;1185;21858;-54
2021/09/11 03:53:27;;;;;;;16.50;11.50;;;;;;;18.12;52.72;100612.38;117337;1184;21855;-64
2021/09/11 03:56:04;;;;;;;16.00;10.70;;;;;;;18.12;52.76;100611.11;117404;1181;23443;-55
2021/09/11 03:58:34;;;;;;;18.00;11.50;;;;;;;18.15;52.79;100616.72;117343;1185;23440;-54
2021/09/11 04:01:08;;;;;;;19.80;13.70;;;;;;;18.17;52.78;100615.36;117355;1185;22906;-65
2021/09/11 04:03:37;;;;;;;39.00;20.70;;;;;;;18.20;52.83;100620.21;117368;1185;23462;-64
2021/09/11 04:06:05;;;;;;;39.60;23.60;;;;;;;18.24;52.88;100619.16;117395;1180;23442;-64
2021/09/11 04:08:34;;;;;;;27.10;17.00;;;;;;;18.32;52.81;100616.73;117409;1185;23439;-54
2021/09/11 04:11:22;;;;;;;21.50;13.10;;;;;;;18.39;52.81;100621.23;117357;1185;21881;-64
2021/09/11 04:13:51;;;;;;;16.30;12.00;;;;;;;18.44;52.82;100619.43;117450;1185;23468;-55
2021/09/11 04:16:19;;;;;;;16.90;11.30;;;;;;;18.49;52.79;100621.00;117468;1182;23449;-62
2021/09/11 04:19:08;;;;;;;22.10;11.20;;;;;;;18.56;52.94;100616.63;117348;1185;21855;-65
2021/09/11 04:21:36;;;;;;;21.30;11.40;;;;;;;18.65;52.89;100613.22;117269;1183;21863;-55
2021/09/11 04:24:06;;;;;;;17.80;11.70;;;;;;;18.75;52.87;100617.96;117452;1185;21845;-60
2021/09/11 04:26:36;;;;;;;20.40;11.60;;;;;;;18.86;52.89;100616.27;117436;1185;21859;-54
2021/09/11 04:29:04;;;;;;;24.60;11.00;;;;;;;18.95;52.95;100617.85;117371;1185;21855;-54
2021/09/11 04:31:34;;;;;;;30.30;12.20;;;;;;;19.05;52.98;100619.92;117352;1184;23549;-66
2021/09/11 04:34:03;;;;;;;23.10;11.60;;;;;;;19.14;52.94;100617.73;117399;1185;22099;-55
2021/09/11 04:36:31;;;;;;;21.20;11.10;;;;;;;19.24;52.99;100615.34;117360;1184;21855;-65
2021/09/11 04:38:59;;;;;;;15.40;10.90;;;;;;;19.35;53.00;100616.65;117677;1180;22920;-66
2021/09/11 04:41:28;;;;;;;14.60;10.70;;;;;;;19.45;53.04;100614.40;117376;1185;23471;-65
2021/09/11 04:43:56;;;;;;;18.40;10.70;;;;;;;19.58;52.99;100609.88;117289;1185;21857;-54
2021/09/11 04:46:44;;;;;;;19.40;10.40;;;;;;;19.70;52.96;100608.98;117302;1184;22962;-65
2021/09/11 04:49:13;;;;;;;17.90;11.10;;;;;;;19.77;53.09;100607.09;117325;1184;21860;-55
2021/09/11 04:51:41;;;;;;;16.40;10.90;;;;;;;19.91;52.99;100609.80;117377;1185;23443;-66
2021/09/11 04:54:09;;;;;;;16.50;11.40;;;;;;;20.03;52.96;100608.55;117287;1186;21858;-54
2021/09/11 04:56:39;;;;;;;16.50;10.90;;;;;;;20.13;52.96;100603.96;117394;1183;23651;-68
2021/09/11 04:59:07;;;;;;;18.50;11.00;;;;;;;20.22;53.04;100603.34;117389;1186;23439;-64
2021/09/11 05:01:35;;;;;;;18.30;11.40;;;;;;;20.32;53.08;100603.20;117368;1185;23456;-54
2021/09/11 05:04:04;;;;;;;16.20;10.20;;;;;;;20.44;53.10;100604.59;117341;1186;23455;-64
2021/09/11 05:06:32;;;;;;;18.20;11.00;;;;;;;20.55;53.05;100601.02;117391;1182;23439;-55
2021/09/11 05:09:01;;;;;;;16.30;10.40;;;;;;;20.69;53.01;100604.75;117379;1184;24152;-66
2021/09/11 05:11:38;;;;;;;15.00;10.40;;;;;;;20.84;53.00;100601.52;117361;1182;24152;-67
2021/09/11 05:14:07;;;;;;;18.10;10.80;;;;;;;20.96;53.02;100598.23;117469;1183;24217;-54
2021/09/11 05:16:38;;;;;;;17.50;11.30;;;;;;;21.13;52.97;100595.39;117297;1186;24169;-63
2021/09/11 05:19:06;;;;;;;17.80;10.30;;;;;;;21.28;53.02;100594.79;117316;1183;21922;-65
2021/09/11 05:21:49;;;;;;;14.00;10.30;;;;;;;21.37;53.17;100596.45;117353;1182;24310;-66
2021/09/11 05:24:17;;;;;;;20.50;11.10;;;;;;;21.47;53.20;100595.70;117446;1184;23443;-63
2021/09/11 05:27:05;;;;;;;17.50;10.70;;;;;;;21.57;53.16;100593.94;117351;1185;23544;-63
2021/09/11 05:29:42;;;;;;;16.70;10.50;;;;;;;21.70;53.05;100596.63;117351;1185;23443;-55
2021/09/11 05:32:12;;;;;;;17.40;10.30;;;;;;;21.91;53.06;100589.75;117350;1186;24213;-55
2021/09/11 05:34:41;;;;;;;17.30;11.00;;;;;;;22.07;52.95;100585.45;117597;1185;23475;-63
2021/09/11 05:37:09;;;;;;;18.10;11.10;;;;;;;22.19;52.93;100586.58;117368;1184;23544;-55
2021/09/11 05:39:38;;;;;;;15.80;10.60;;;;;;;22.28;52.97;100587.65;117433;1185;23465;-55
2021/09/11 05:42:07;;;;;;;16.40;11.10;;;;;;;22.42;52.99;100590.08;117374;1185;21845;-62
2021/09/11 05:44:35;;;;;;;15.30;10.00;;;;;;;22.56;53.07;100588.59;117376;1185;22961;-55
2021/09/11 05:47:04;;;;;;;18.20;10.30;;;;;;;22.71;53.02;100591.99;117303;1185;21857;-54
2021/09/11 05:49:32;;;;;;;15.00;10.30;;;;;;;22.87;52.84;100589.06;117391;1184;23546;-55
2021/09/11 05:52:00;;;;;;;13.00;9.20;;;;;;;23.00;52.80;100589.70;117363;1186;23465;-63
2021/09/11 05:54:29;;;;;;;16.00;10.40;;;;;;;23.09;52.96;100592.73;117342;1185;21998;-55
2021/09/11 05:56:58;;;;;;;14.60;9.60;;;;;;;23.14;53.14;100590.82;117366;1185;23546;-63
2021/09/11 05:59:27;;;;;;;15.00;10.10;;;;;;;23.22;53.11;100589.80;117369;1184;23540;-64
2021/09/11 06:01:57;;;;;;;;;;;;;;;23.33;53.21;100591.08;117333;1185;23409;-62
2021/09/11 06:04:26;;;;;;;13.20;10.60;;;;;;;23.42;53.35;100591.77;117446;1185;22318;-64
2021/09/11 06:06:54;;;;;;;16.60;9.70;;;;;;;23.52;53.42;100593.13;117369;1185;21855;-68
2021/09/11 06:09:22;;;;;;;17.00;11.20;;;;;;;23.69;53.64;100587.25;117347;1184;23439;-65
2021/09/11 06:11:51;;;;;;;13.60;10.50;;;;;;;23.90;53.80;100587.00;117419;1185;23461;-55
2021/09/11 06:14:19;;;;;;;18.40;10.60;;;;;;;24.07;53.69;100586.63;117344;1184;22963;-64
2021/09/11 06:16:48;;;;;;;17.90;10.90;;;;;;;24.22;53.58;100586.53;117352;1184;23469;-54
2021/09/11 06:19:17;;;;;;;18.30;10.30;;;;;;;24.37;53.56;100583.39;117297;1186;23452;-55
2021/09/11 06:21:46;;;;;;;11.90;10.00;;;;;;;24.52;53.68;100581.16;117366;1184;23442;-65
2021/09/11 06:24:14;;;;;;;14.10;9.50;;;;;;;24.68;53.73;100582.91;117374;1186;23463;-55
2021/09/11 06:26:42;;;;;;;15.40;10.60;;;;;;;24.83;53.71;100585.86;117343;1185;21878;-55
2021/09/11 06:29:11;;;;;;;13.20;10.10;;;;;;;25.00;53.80;100585.77;117391;1184;23443;-55
2021/09/11 06:31:39;;;;;;;12.40;9.50;;;;;;;25.18;53.66;100584.73;117330;1189;21888;-64
2021/09/11 06:34:07;;;;;;;15.00;10.00;;;;;;;25.33;53.61;100584.54;117442;1185;22437;-55
2021/09/11 06:36:35;;;;;;;15.50;9.70;;;;;;;25.51;53.68;100584.52;117363;1185;21858;-63
2021/09/11 06:39:03;;;;;;;14.20;9.80;;;;;;;25.72;53.68;100583.22;117310;1185;21864;-65
2021/09/11 06:41:33;;;;;;;11.50;9.50;;;;;;;25.94;53.67;100584.54;117375;1185;23513;-65
2021/09/11 06:44:02;;;;;;;16.50;10.40;;;;;;;26.18;53.73;100587.61;117424;1182;23441;-55
2021/09/11 06:46:30;;;;;;;15.30;10.40;;;;;;;26.38;53.63;100589.39;117441;1183;23441;-55
2021/09/11 06:48:59;;;;;;;16.20;10.50;;;;;;;26.58;53.72;100588.95;117415;1185;23433;-66
2021/09/11 06:51:29;;;;;;;15.60;9.40;;;;;;;26.82;53.83;100588.54;117331;1185;24200;-65
2021/09/11 06:53:58;;;;;;;12.90;9.10;;;;;;;27.14;53.99;100587.52;117423;1185;21858;-68
2021/09/11 06:56:26;;;;;;;14.10;9.40;;;;;;;27.45;53.89;100592.64;117433;1185;21856;-55
2021/09/11 06:58:55;;;;;;;16.00;9.90;;;;;;;27.66;53.82;100591.37;117409;1184;24698;-68
2021/09/11 07:01:23;;;;;;;16.60;9.30;;;;;;;27.81;53.57;100591.39;117480;1185;21845;-70
2021/09/11 07:03:52;;;;;;;13.00;9.90;;;;;;;28.00;53.72;100591.11;117419;1184;22616;-69
2021/09/11 07:06:21;;;;;;;17.40;9.70;;;;;;;28.24;53.77;100586.79;117295;1184;23545;-71
2021/09/11 07:08:49;;;;;;;12.10;9.20;;;;;;;28.54;53.82;100584.48;117398;1185;23442;-54
2021/09/11 07:11:37;;;;;;;13.00;9.00;;;;;;;28.88;54.02;100586.14;117311;1186;21867;-54
2021/09/11 07:14:08;;;;;;;11.90;8.60;;;;;;;29.20;54.09;100585.57;117351;1176;22936;-55
2021/09/11 07:16:47;;;;;;;15.70;8.90;;;;;;;29.42;53.99;100586.20;117343;1185;23537;-66
2021/09/11 07:19:16;;;;;;;13.30;9.20;;;;;;;29.68;53.93;100583.84;117480;1184;24142;-54
2021/09/11 07:21:44;;;;;;;13.40;9.00;;;;;;;30.02;53.97;100585.52;117318;1185;21862;-54
2021/09/11 07:24:13;;;;;;;11.10;8.40;;;;;;;30.33;53.95;100586.34;117367;1184;23509;-55
2021/09/11 07:26:41;;;;;;;13.00;8.80;;;;;;;30.58;53.89;100588.70;117421;1185;21873;-55
2021/09/11 07:29:10;;;;;;;12.20;8.40;;;;;;;30.79;53.72;100587.17;117417;1181;23478;-67
2021/09/11 07:31:38;;;;;;;12.40;9.50;;;;;;;30.93;53.57;100587.10;117284;1185;24258;-55
2021/09/11 07:34:07;;;;;;;12.00;8.80;;;;;;;31.07;53.78;100586.70;117405;1185;23443;-65
2021/09/11 07:36:38;;;;;;;17.30;9.50;;;;;;;31.22;53.77;100586.90;117349;1184;23443;-55
2021/09/11 07:39:08;;;;;;;14.10;8.70;;;;;;;31.34;53.64;100586.45;117482;1185;23469;-54
2021/09/11 07:41:36;;;;;;;18.90;9.40;;;;;;;31.42;53.61;100587.65;117289;1185;21864;-55
2021/09/11 07:44:04;;;;;;;13.20;9.10;;;;;;;31.48;53.47;100584.92;117331;1188;21845;-67
2021/09/11 07:46:33;;;;;;;11.90;9.00;;;;;;;31.50;53.46;100585.13;117430;1185;22668;-55
2021/09/11 07:49:02;;;;;;;11.40;9.00;;;;;;;31.52;53.39;100587.83;117439;1185;24694;-66
2021/09/11 07:51:30;;;;;;;12.20;9.20;;;;;;;31.55;53.43;100590.21;117442;1184;21860;-66
2021/09/11 07:53:58;;;;;;;14.00;8.50;;;;;;;31.58;53.28;100591.20;117440;1185;23464;-55
2021/09/11 07:56:26;;;;;;;12.30;9.10;;;;;;;31.57;53.28;100590.92;117354;1183;23459;-68
2021/09/11 07:58:55;;;;;;;12.70;9.70;;;;;;;31.60;53.39;100590.07;117417;1183;23433;-67
2021/09/11 08:01:23;;;;;;;12.40;9.10;;;;;;;31.69;53.27;100590.32;117365;1185;23446;-55
2021/09/11 08:03:52;;;;;;;16.60;10.70;;;;;;;31.76;53.24;100584.98;117449;1185;21853;-55
2021/09/11 08:06:20;;;;;;;16.80;10.00;;;;;;;31.83;53.32;100582.20;117343;1185;23554;-68
2021/09/11 08:08:50;;;;;;;14.10;9.30;;;;;;;31.97;53.51;100581.20;117424;1184;24479;-55
2021/09/11 08:11:18;;;;;;;16.90;10.30;;;;;;;32.13;53.48;100580.33;117380;1185;21849;-67
2021/09/11 08:13:48;;;;;;;17.70;9.80;;;;;;;32.27;53.40;100575.70;117330;1186;24252;-55
2021/09/11 08:16:17;;;;;;;18.90;10.30;;;;;;;32.35;53.24;100570.79;117347;1184;24175;-68
2021/09/11 08:18:46;;;;;;;14.60;9.60;;;;;;;32.38;53.24;100570.41;117242;1184;23469;-68
2021/09/11 08:21:14;;;;;;;12.00;9.30;;;;;;;32.41;53.04;100565.95;117290;1186;21862;-67
2021/09/11 08:24:02;;;;;;;13.00;8.80;;;;;;;32.46;53.12;100566.19;117373;1185;22127;-70
2021/09/11 08:26:31;;;;;;;13.00;9.10;;;;;;;32.45;53.16;100565.15;117397;1182;21852;-55
2021/09/11 08:28:59;;;;;;;15.80;9.00;;;;;;;32.48;53.12;100560.14;117434;1185;21862;-68
2021/09/11 08:31:29;;;;;;;18.70;9.70;;;;;;;32.51;53.03;100558.96;117391;1184;21856;-54
2021/09/11 08:33:57;;;;;;;12.50;9.10;;;;;;;32.51;52.88;100557.52;117455;1186;24195;-55
2021/09/11 08:36:26;;;;;;;11.50;9.10;;;;;;;32.49;52.79;100554.83;117418;1185;23432;-55
2021/09/11 08:38:54;;;;;;;13.60;9.20;;;;;;;32.53;53.01;100556.80;117416;1185;24155;-54
2021/09/11 08:41:22;;;;;;;9.50;8.40;;;;;;;32.67;53.00;100549.99;117445;1184;23589;-55
2021/09/11 08:43:51;;;;;;;12.30;9.10;;;;;;;32.95;53.01;100541.46;117491;1185;21876;-55
2021/09/11 08:46:19;;;;;;;15.50;9.10;;;;;;;33.21;53.01;100542.64;117375;1183;22831;-55
2021/09/11 08:48:48;;;;;;;13.90;9.50;;;;;;;33.40;52.80;100540.98;117286;1185;24166;-65
2021/09/11 08:51:16;;;;;;;14.70;9.10;;;;;;;33.60;52.81;100539.39;117360;1185;23455;-54
2021/09/11 08:53:44;;;;;;;11.90;8.10;;;;;;;33.76;52.61;100532.46;117394;1182;23464;-67
2021/09/11 08:56:16;;;;;;;12.30;9.40;;;;;;;33.94;52.78;100528.86;117350;1184;21858;-56
2021/09/11 08:58:44;;;;;;;14.00;9.20;;;;;;;34.11;52.85;100524.61;117461;1183;23443;-67
2021/09/11 09:01:13;;;;;;;11.90;9.10;;;;;;;34.31;53.05;100524.70;117433;1185;21854;-55
2021/09/11 09:03:43;;;;;;;15.50;9.00;;;;;;;34.60;53.38;100521.06;117139;1184;24190;-68
2021/09/11 09:06:27;;;;;;;11.00;8.70;;;;;;;34.98;53.09;100515.90;118090;1184;22610;-55
2021/09/11 09:09:09;;;;;;;12.50;8.30;;;;;;;35.33;53.00;100509.57;117412;1185;23616;-72
2021/09/11 09:11:39;;;;;;;12.60;8.20;;;;;;;35.62;52.77;100504.71;117308;1185;23474;-71
2021/09/11 09:14:11;;;;;;;10.10;8.70;;;;;;;35.84;52.71;100508.78;117348;1186;23461;-56
2021/09/11 09:16:51;;;;;;;12.20;8.90;;;;;;;35.97;52.36;100507.44;117437;1183;21855;-55
2021/09/11 09:19:24;;;;;;;12.80;8.70;;;;;;;36.05;52.20;100499.95;117450;1185;21858;-55
2021/09/11 09:21:54;;;;;;;10.70;8.30;;;;;;;36.15;52.38;100500.35;117425;1184;21882;-69
2021/09/11 09:24:34;;;;;;;11.60;7.80;;;;;;;36.22;52.18;100503.44;117381;1185;21855;-67
2021/09/11 09:27:03;;;;;;;9.90;8.20;;;;;;;36.26;52.15;100498.45;117371;1184;23432;-56
2021/09/11 09:29:36;;;;;;;;;;;;;;;36.24;52.07;100503.35;118121;1182;22620;-56
2021/09/11 09:32:04;;;;;;;10.40;7.90;;;;;;;36.27;52.15;100502.09;117319;1185;23532;-68
2021/09/11 09:34:36;;;;;;;9.00;7.90;;;;;;;36.30;51.98;100502.73;117414;1185;22934;-55
2021/09/11 09:37:07;;;;;;;10.60;8.00;;;;;;;36.26;51.89;100504.16;117467;1182;22916;-69
2021/09/11 09:39:39;;;;;;;9.60;7.80;;;;;;;36.27;51.82;100500.98;117364;1181;21864;-71
2021/09/11 09:42:07;;;;;;;10.40;8.40;;;;;;;36.36;51.94;100503.21;117397;1185;21855;-71
2021/09/11 09:44:43;;;;;;;11.80;8.50;;;;;;;36.42;52.11;100501.41;117528;1185;21858;-57
2021/09/11 09:47:16;;;;;;;11.00;8.50;;;;;;;36.51;52.04;100496.84;117456;1184;23541;-56
2021/09/11 09:50:06;;;;;;;11.00;7.90;;;;;;;36.62;52.07;100497.55;117428;1185;21858;-55
2021/09/11 09:52:36;;;;;;;9.90;8.10;;;;;;;36.78;52.09;100494.30;117391;1185;21865;-59
2021/09/11 09:55:05;;;;;;;10.50;8.30;;;;;;;36.94;52.03;100493.69;117371;1184;21845;-70
2021/09/11 09:57:33;;;;;;;13.90;8.20;;;;;;;37.01;51.71;100494.05;117299;1185;21891;-68
2021/09/11 10:00:03;;;;;;;12.70;8.50;;;;;;;37.03;51.55;100495.27;117341;1185;21878;-69
2021/09/11 10:02:42;;;;;;;9.50;8.10;;;;;;;37.02;51.42;100493.27;117324;1182;21956;-70
2021/09/11 10:05:15;;;;;;;11.70;8.40;;;;;;;36.93;51.18;100494.89;117386;1185;21845;-67
2021/09/11 10:08:08;;;;;;;10.00;8.10;;;;;;;36.75;51.03;100493.23;117409;1183;22915;-70
2021/09/11 10:10:56;;;;;;;10.40;8.50;;;;;;;36.60;50.98;100493.23;116990;1185;22920;-68
2021/09/11 10:13:26;;;;;;;12.40;8.30;;;;;;;36.43;50.80;100492.80;116970;1182;21875;-67
2021/09/11 10:16:00;;;;;;;10.10;7.40;;;;;;;36.19;50.67;100492.02;117014;1188;22995;-68
2021/09/11 10:18:34;;;;;;;12.20;8.10;;;;;;;35.91;50.56;100492.23;116947;1186;21872;-69
2021/09/11 10:21:19;;;;;;;12.00;8.20;;;;;;;35.75;50.71;100491.80;117078;1187;23545;-69
2021/09/11 10:23:57;;;;;;;9.20;7.80;;;;;;;35.60;50.75;100485.84;117029;1187;23088;-67
2021/09/11 10:26:44;;;;;;;11.00;8.30;;;;;;;35.55;51.02;100477.42;116947;1187;21850;-66
2021/09/11 10:29:35;;;;;;;11.50;9.30;;;;;;;35.65;51.15;100476.44;117061;1187;21856;-67
2021/09/11 10:32:07;;;;;;;11.20;8.50;;;;;;;35.82;51.07;100475.35;117040;1187;23548;-68
2021/09/11 10:35:16;;;;;;;10.50;8.10;;;;;;;36.04;50.60;100470.28;117071;1188;21863;-69
2021/09/11 10:37:50;;;;;;;10.10;8.00;;;;;;;36.15;50.52;100466.60;116788;1191;24345;-68
2021/09/11 10:40:38;;;;;;;9.80;7.90;;;;;;;36.23;50.49;100462.34;117032;1187;22940;-55
2021/09/11 10:43:29;;;;;;;10.30;8.40;;;;;;;36.28;50.33;100459.41;117280;1186;22438;-56
2021/09/11 10:46:08;;;;;;;10.90;7.80;;;;;;;36.30;50.25;100458.57;117389;1185;22918;-70
2021/09/11 10:48:42;;;;;;;8.90;8.00;;;;;;;36.33;50.24;100457.16;117356;1186;21858;-54
2021/09/11 10:51:30;;;;;;;9.00;7.50;;;;;;;36.39;50.21;100452.72;117384;1182;23547;-69
2021/09/11 10:54:13;;;;;;;8.00;6.90;;;;;;;36.44;50.04;100457.72;117333;1182;22304;-68
2021/09/11 10:56:45;;;;;;;8.40;7.50;;;;;;;36.50;50.07;100454.41;117540;1182;23415;-67
2021/09/11 10:59:16;;;;;;;8.60;6.50;;;;;;;36.52;50.00;100456.31;117319;1185;23576;-67
2021/09/11 11:02:09;;;;;;;8.30;7.40;;;;;;;36.57;49.88;100449.14;117291;1185;23621;-68
2021/09/11 11:04:46;;;;;;;9.10;7.20;;;;;;;36.67;49.91;100449.56;117366;1184;21936;-69
2021/09/11 11:07:15;;;;;;;10.30;7.20;;;;;;;36.73;49.87;100446.48;117320;1185;21856;-67
2021/09/11 11:10:05;;;;;;;9.50;7.60;;;;;;;36.72;49.79;100441.23;117276;1190;21847;-66
2021/09/11 11:12:47;;;;;;;10.90;7.10;;;;;;;36.72;49.75;100437.10;117350;1186;21900;-69
2021/09/11 11:15:27;;;;;;;9.40;7.50;;;;;;;36.78;49.77;100432.84;117348;1184;22648;-69
2021/09/11 11:17:56;;;;;;;10.20;8.00;;;;;;;36.87;49.77;100429.17;117355;1185;21880;-54
2021/09/11 11:20:32;;;;;;;9.70;7.90;;;;;;;37.01;49.94;100425.98;117169;1182;23649;-66
2021/09/11 11:23:01;;;;;;;11.80;7.80;;;;;;;37.10;49.88;100424.73;118854;1185;21865;-55
2021/09/11 11:25:36;;;;;;;12.60;7.90;;;;;;;37.09;49.81;100426.55;119041;1185;22931;-54
2021/09/11 11:28:09;;;;;;;9.20;7.50;;;;;;;37.03;49.71;100424.67;117356;1186;23212;-55